Time;durP1;ratioP1;P1;durP2;ratioP2;P2;SDS_P1;SDS_P2;PMS_P1;PMS_P2;Temp;Humidity;BMP_temperature;BMP_pressure;BME280_temperature;BME280_humidity;BME280_pressure;Samples;Min_cycle;Max_cycle;Signal;HPM_P1;HPM_P2
2022/02/08 00:00:05;;;;;;;;;;;8.60;91.80;;;;;;5074577;28;19912;-77
2022/02/08 00:02:34;;;;;;;;;;;8.60;91.80;;;;;;5076653;28;19917;-77
2022/02/08 00:05:00;;;;;;;;;;;8.60;91.80;;;;;;5075492;28;19912;-77
2022/02/08 00:07:28;;;;;;;;;;;8.60;91.70;;;;;;5075068;28;19936;-77
2022/02/08 00:09:53;;;;;;;;;;;8.60;91.60;;;;;;5076967;28;19919;-77
2022/02/08 00:12:19;;;;;;;;;;;8.60;91.60;;;;;;5076029;28;19913;-75
2022/02/08 00:14:46;;;;;;;;;;;8.60;91.50;;;;;;5076846;28;19912;-77
2022/02/08 00:17:11;;;;;;;;;;;8.70;91.60;;;;;;5076248;28;19919;-81
2022/02/08 00:19:38;;;;;;;;;;;8.70;91.60;;;;;;5076877;28;20376;-82
2022/02/08 00:22:04;;;;;;;;;;;8.70;91.70;;;;;;5086419;28;20276;-82
2022/02/08 00:24:30;;;;;;;;;;;8.70;91.70;;;;;;5070748;28;20007;-82
2022/02/08 00:26:56;;;;;;;;;;;8.70;91.80;;;;;;5077649;28;19948;-78
2022/02/08 00:29:22;;;;;;;;;;;8.70;91.90;;;;;;5076238;28;19957;-86
2022/02/08 00:31:47;;;;;;;;;;;8.70;91.90;;;;;;5077359;28;19919;-82
2022/02/08 00:34:13;;;;;;;;;;;8.80;91.90;;;;;;5072371;28;19912;-84
2022/02/08 00:36:39;;;;;;;;;;;8.80;91.80;;;;;;5076725;28;19927;-84
2022/02/08 00:39:07;;;;;;;;;;;8.80;91.70;;;;;;5076839;28;19912;-84
2022/02/08 00:41:34;;;;;;;;;;;8.80;91.70;;;;;;5080049;28;19960;-84
2022/02/08 00:44:06;;;;;;;;;;;8.80;91.60;;;;;;5080506;28;19925;-84
2022/02/08 00:46:45;;;;;;;;;;;8.80;91.90;;;;;;5079931;28;20371;-84
2022/02/08 00:49:11;;;;;;;;;;;8.90;92.00;;;;;;5079863;28;19917;-84
2022/02/08 00:51:41;;;;;;;;;;;8.90;91.80;;;;;;5080895;28;19957;-84
2022/02/08 00:54:08;;;;;;;;;;;8.90;91.80;;;;;;5079181;28;19935;-84
2022/02/08 00:56:49;;;;;;;;;;;8.90;91.90;;;;;;5080732;28;19914;-84
2022/02/08 00:59:15;;;;;;;;;;;9.00;92.70;;;;;;5068266;28;19909;-84
2022/02/08 01:01:41;;;;;;;;;;;9.00;93.00;;;;;;5078320;28;20335;-84
2022/02/08 01:04:07;;;;;;;;;;;9.00;93.10;;;;;;5079869;28;19999;-84
2022/02/08 01:06:33;;;;;;;;;;;9.10;93.00;;;;;;5079026;28;19920;-85
2022/02/08 01:09:11;;;;;;;;;;;9.10;92.90;;;;;;5062285;28;20295;-85
2022/02/08 01:11:37;;;;;;;;;;;9.10;92.70;;;;;;5079010;28;19916;-84
2022/02/08 01:14:03;;;;;;;;;;;9.10;92.70;;;;;;5078851;28;19974;-84
2022/02/08 01:16:29;;;;;;;;;;;9.10;93.00;;;;;;5079675;28;20007;-84
2022/02/08 01:18:57;;;;;;;;;;;9.10;93.20;;;;;;5078944;28;19915;-85
2022/02/08 01:21:24;;;;;;;;;;;9.10;93.10;;;;;;5076080;28;19912;-84
2022/02/08 01:23:50;;;;;;;;;;;9.10;92.80;;;;;;5078710;28;19944;-84
2022/02/08 01:26:18;;;;;;;;;;;9.10;92.80;;;;;;5079532;28;19916;-84
2022/02/08 01:28:51;;;;;;;;;;;9.10;93.20;;;;;;5078774;28;19917;-84
2022/02/08 01:31:19;;;;;;;;;;;9.20;93.60;;;;;;5078790;28;19919;-84
2022/02/08 01:39:24;;;;;;;;;;;9.20;93.70;;;;;;5079007;28;19916;-84
2022/02/08 01:44:42;;;;;;;;;;;9.20;94.40;;;;;;5079332;28;19920;-84
2022/02/08 01:47:24;;;;;;;;;;;9.20;94.20;;;;;;5078479;28;19916;-84
2022/02/08 01:50:23;;;;;;;;;;;9.20;94.40;;;;;;5078919;28;19916;-84
2022/02/08 01:52:42;;;;;;;;;;;9.20;94.40;;;;;;5075951;28;19912;-84
2022/02/08 01:55:09;;;;;;;;;;;9.30;94.90;;;;;;5077806;28;19917;-84
2022/02/08 01:57:36;;;;;;;;;;;9.30;95.10;;;;;;5078521;28;19978;-84
2022/02/08 02:00:03;;;;;;;;;;;9.20;95.20;;;;;;5078057;28;19912;-84
2022/02/08 02:02:29;;;;;;;;;;;9.30;95.30;;;;;;5077019;28;20008;-84
2022/02/08 02:04:54;;;;;;;;;;;9.20;95.10;;;;;;5079303;28;19944;-84
2022/02/08 02:07:20;;;;;;;;;;;9.20;95.10;;;;;;5079074;28;19916;-85
2022/02/08 02:09:46;;;;;;;;;;;9.20;94.80;;;;;;5078616;28;19917;-84
2022/02/08 02:12:12;;;;;;;;;;;9.20;94.50;;;;;;5078815;28;20029;-84
2022/02/08 02:14:39;;;;;;;;;;;9.20;94.10;;;;;;5079009;28;20489;-84
2022/02/08 02:17:05;;;;;;;;;;;9.20;93.90;;;;;;5078522;28;19912;-84
2022/02/08 02:19:30;;;;;;;;;;;9.20;93.60;;;;;;5078148;28;19912;-84
2022/02/08 02:21:57;;;;;;;;;;;9.20;93.40;;;;;;5078661;28;19912;-84
2022/02/08 02:24:23;;;;;;;;;;;9.20;93.50;;;;;;5078455;28;19913;-84
2022/02/08 02:26:48;;;;;;;;;;;9.20;93.60;;;;;;5078839;28;19918;-84
2022/02/08 02:29:15;;;;;;;;;;;9.20;93.50;;;;;;5077792;28;20291;-84
2022/02/08 02:31:42;;;;;;;;;;;9.20;93.30;;;;;;5076368;28;20379;-85
2022/02/08 02:34:08;;;;;;;;;;;9.20;93.40;;;;;;5078255;28;19912;-85
2022/02/08 02:36:33;;;;;;;;;;;9.20;93.30;;;;;;5078310;28;19919;-84
2022/02/08 02:38:59;;;;;;;;;;;9.20;93.00;;;;;;5078320;28;20369;-85
2022/02/08 02:41:24;;;;;;;;;;;9.20;93.00;;;;;;5078553;28;20012;-84
2022/02/08 02:43:50;;;;;;;;;;;9.30;93.00;;;;;;5078486;28;20007;-84
2022/02/08 02:46:16;;;;;;;;;;;9.30;93.30;;;;;;5077199;28;19920;-85
2022/02/08 02:48:42;;;;;;;;;;;9.30;93.40;;;;;;5077693;28;20344;-84
2022/02/08 02:51:12;;;;;;;;;;;9.30;93.10;;;;;;5077942;28;19932;-85
2022/02/08 02:53:37;;;;;;;;;;;9.30;93.40;;;;;;5071274;28;19913;-85
2022/02/08 02:56:03;;;;;;;;;;;9.30;93.20;;;;;;5075149;28;19908;-84
2022/02/08 02:58:31;;;;;;;;;;;9.30;93.00;;;;;;5077019;28;19962;-85
2022/02/08 03:01:20;;;;;;;;;;;9.30;92.90;;;;;;5078002;28;20367;-84
2022/02/08 03:19:58;;;;;;;;;;;9.40;94.40;;;;;;5076366;28;19918;-85
2022/02/08 03:22:24;;;;;;;;;;;9.40;94.50;;;;;;5077455;28;19923;-84
2022/02/08 03:24:49;;;;;;;;;;;9.40;94.60;;;;;;5077794;28;20337;-84
2022/02/08 03:27:15;;;;;;;;;;;9.40;94.70;;;;;;5077439;28;19917;-85
2022/02/08 03:29:42;;;;;;;;;;;9.40;94.50;;;;;;5076893;28;19912;-85
2022/02/08 03:32:08;;;;;;;;;;;9.40;94.30;;;;;;5077250;28;19916;-84
2022/02/08 03:34:33;;;;;;;;;;;9.30;94.20;;;;;;5078244;28;19915;-84
2022/02/08 03:36:59;;;;;;;;;;;9.30;94.10;;;;;;5077003;28;19999;-84
2022/02/08 03:39:34;;;;;;;;;;;9.30;93.80;;;;;;5071821;28;20003;-84
2022/02/08 03:42:08;;;;;;;;;;;9.40;93.90;;;;;;5066922;28;20272;-85
2022/02/08 03:44:34;;;;;;;;;;;9.40;94.10;;;;;;5077683;28;19970;-85
2022/02/08 03:47:07;;;;;;;;;;;9.40;93.90;;;;;;5076586;28;19943;-84
2022/02/08 03:49:33;;;;;;;;;;;9.30;93.70;;;;;;5076681;28;20557;-84
2022/02/08 03:52:04;;;;;;;;;;;9.30;93.40;;;;;;5077456;28;19912;-84
2022/02/08 03:54:30;;;;;;;;;;;9.30;93.30;;;;;;5076794;28;19913;-84
2022/02/08 03:56:56;;;;;;;;;;;9.40;93.20;;;;;;5077278;28;19994;-84
2022/02/08 03:59:21;;;;;;;;;;;9.40;93.20;;;;;;5076780;28;19913;-84
2022/02/08 04:02:09;;;;;;;;;;;9.40;93.30;;;;;;5077250;28;20403;-84
2022/02/08 04:04:48;;;;;;;;;;;9.40;93.20;;;;;;5077063;28;20383;-84
2022/02/08 04:07:21;;;;;;;;;;;9.30;93.00;;;;;;5076940;28;19912;-84
2022/02/08 04:09:49;;;;;;;;;;;9.30;92.90;;;;;;5075573;28;19940;-84
2022/02/08 04:12:22;;;;;;;;;;;9.30;92.80;;;;;;5072676;28;19919;-85
2022/02/08 04:36:14;;;;;;;;;;;9.40;93.60;;;;;;5080669;28;19912;-85
2022/02/08 04:41:18;;;;;;;;;;;9.40;93.90;;;;;;5066220;28;19912;-85
2022/02/08 04:44:40;;;;;;;;;;;9.30;94.00;;;;;;5080534;28;20387;-85
2022/02/08 04:46:49;;;;;;;;;;;9.40;94.00;;;;;;5069061;28;19908;-85
2022/02/08 04:49:14;;;;;;;;;;;9.40;94.00;;;;;;5079457;28;19916;-85
2022/02/08 04:51:46;;;;;;;;;;;9.40;94.10;;;;;;5080214;28;19915;-85
2022/02/08 04:54:21;;;;;;;;;;;9.40;94.00;;;;;;5079187;28;21301;-85
2022/02/08 05:43:12;;;;;;;;;;;9.20;94.60;;;;;;5075818;28;19935;-84
2022/02/08 05:46:03;;;;;;;;;;;9.20;94.80;;;;;;5068048;28;19962;-84
2022/02/08 05:48:28;;;;;;;;;;;9.20;94.90;;;;;;5078480;28;20025;-84
2022/02/08 05:51:12;;;;;;;;;;;9.20;94.90;;;;;;5078896;28;20357;-84
2022/02/08 05:53:45;;;;;;;;;;;9.20;94.90;;;;;;5078284;28;19923;-84
2022/02/08 05:56:15;;;;;;;;;;;9.20;94.80;;;;;;5077499;28;19912;-84
2022/02/08 05:58:43;;;;;;;;;;;9.20;94.70;;;;;;5076589;28;19912;-84
2022/02/08 06:01:09;;;;;;;;;;;9.10;94.60;;;;;;5079119;28;19956;-84
2022/02/08 06:03:34;;;;;;;;;;;9.20;94.80;;;;;;5078360;28;19916;-84
2022/02/08 06:06:00;;;;;;;;;;;9.10;94.70;;;;;;5079109;28;20359;-84
2022/02/08 06:08:26;;;;;;;;;;;9.10;94.50;;;;;;5078353;28;20365;-84
2022/02/08 06:11:03;;;;;;;;;;;9.10;94.40;;;;;;5078971;28;19912;-84
2022/02/08 06:13:30;;;;;;;;;;;9.10;94.50;;;;;;5075228;28;19955;-84
2022/02/08 06:16:02;;;;;;;;;;;9.10;94.50;;;;;;5079268;28;19908;-84
2022/02/08 06:18:29;;;;;;;;;;;9.10;94.50;;;;;;5078327;28;19948;-84
2022/02/08 06:20:54;;;;;;;;;;;9.10;94.30;;;;;;5077960;28;19982;-85
2022/02/08 06:23:20;;;;;;;;;;;9.10;94.60;;;;;;5078711;28;19974;-84
2022/02/08 06:25:45;;;;;;;;;;;9.10;94.60;;;;;;5078979;28;19958;-84
2022/02/08 06:28:12;;;;;;;;;;;9.00;94.50;;;;;;5077933;28;20329;-84
2022/02/08 06:30:38;;;;;;;;;;;9.00;94.40;;;;;;5078553;28;19992;-84
2022/02/08 06:33:05;;;;;;;;;;;9.10;94.40;;;;;;5078030;28;20403;-84
2022/02/08 06:35:33;;;;;;;;;;;9.00;94.30;;;;;;5078481;28;19934;-84
2022/02/08 06:38:00;;;;;;;;;;;9.00;94.00;;;;;;5077385;28;19916;-84
2022/02/08 06:40:25;;;;;;;;;;;9.00;93.90;;;;;;5077827;28;19912;-84
2022/02/08 06:42:51;;;;;;;;;;;9.00;93.80;;;;;;5078602;28;19919;-84
2022/02/08 06:45:17;;;;;;;;;;;9.00;93.70;;;;;;5077571;28;21806;-84
2022/02/08 06:47:44;;;;;;;;;;;9.00;93.50;;;;;;5064961;28;19916;-84
2022/02/08 06:50:11;;;;;;;;;;;9.00;93.40;;;;;;5076386;28;19920;-84
2022/02/08 06:52:36;;;;;;;;;;;9.00;93.30;;;;;;5078006;28;19927;-84
2022/02/08 06:55:04;;;;;;;;;;;9.00;93.30;;;;;;5078062;28;20375;-84
2022/02/08 06:57:37;;;;;;;;;;;9.00;93.20;;;;;;5076956;28;19908;-84
2022/02/08 07:00:04;;;;;;;;;;;9.00;93.00;;;;;;5077389;28;19919;-84
2022/02/08 07:02:29;;;;;;;;;;;9.00;93.00;;;;;;5074319;28;19912;-85
2022/02/08 07:04:55;;;;;;;;;;;9.00;92.90;;;;;;5076506;28;19913;-84
2022/02/08 07:07:20;;;;;;;;;;;9.00;92.90;;;;;;5075442;28;19909;-85
2022/02/08 07:09:47;;;;;;;;;;;9.00;93.00;;;;;;5076343;28;20269;-85
2022/02/08 07:12:12;;;;;;;;;;;9.00;92.90;;;;;;5072580;28;19917;-84
2022/02/08 07:14:39;;;;;;;;;;;8.90;92.80;;;;;;5072753;28;19924;-85
2022/02/08 07:17:05;;;;;;;;;;;9.00;92.70;;;;;;5077652;28;20034;-82
2022/02/08 07:19:31;;;;;;;;;;;8.90;92.70;;;;;;5074496;28;19968;-84
2022/02/08 07:21:56;;;;;;;;;;;8.90;92.60;;;;;;5077163;28;19920;-84
2022/02/08 07:24:22;;;;;;;;;;;8.90;92.60;;;;;;5077803;28;20015;-81
2022/02/08 07:26:51;;;;;;;;;;;8.90;92.60;;;;;;5077922;28;19920;-85
2022/02/08 07:29:17;;;;;;;;;;;8.90;92.80;;;;;;5075613;28;19939;-81
2022/02/08 07:31:51;;;;;;;;;;;8.90;92.80;;;;;;5077022;28;19913;-83
2022/02/08 07:36:49;;;;;;;;;;;8.90;92.80;;;;;;5077730;28;19915;-82
2022/02/08 07:42:10;;;;;;;;;;;8.80;92.80;;;;;;5062220;28;19912;-82
2022/02/08 07:44:36;;;;;;;;;;;8.90;92.80;;;;;;5075492;28;19928;-85
2022/02/08 07:47:02;;;;;;;;;;;8.80;92.70;;;;;;5075431;28;20453;-85
2022/02/08 07:49:28;;;;;;;;;;;8.90;92.70;;;;;;5076271;28;19916;-80
2022/02/08 07:51:53;;;;;;;;;;;8.80;92.60;;;;;;5076816;28;19913;-89
2022/02/08 07:54:19;;;;;;;;;;;8.90;92.70;;;;;;5070761;28;19954;-87
2022/02/08 07:56:45;;;;;;;;;;;8.90;92.80;;;;;;5068861;28;19912;-89
2022/02/08 07:59:10;;;;;;;;;;;8.90;92.70;;;;;;5076457;28;19957;-86
2022/02/08 08:01:36;;;;;;;;;;;8.90;92.60;;;;;;5077099;28;19913;-84
2022/02/08 08:04:01;;;;;;;;;;;8.90;92.70;;;;;;5076935;28;19913;-83
2022/02/08 08:06:27;;;;;;;;;;;8.90;92.70;;;;;;5076337;28;20415;-86
2022/02/08 08:08:53;;;;;;;;;;;8.90;92.70;;;;;;5077062;28;20310;-86
2022/02/08 08:11:22;;;;;;;;;;;8.90;92.70;;;;;;5075688;28;20366;-88
2022/02/08 08:14:01;;;;;;;;;;;8.90;92.70;;;;;;5075922;28;20363;-80
2022/02/08 08:19:07;;;;;;;;;;;8.90;92.70;;;;;;5076976;28;19909;-86
2022/02/08 08:21:33;;;;;;;;;;;8.90;92.90;;;;;;5077384;28;19916;-88
2022/02/08 08:24:00;;;;;;;;;;;8.90;92.80;;;;;;5077284;28;19920;-88
2022/02/08 08:26:26;;;;;;;;;;;8.90;92.80;;;;;;5077321;28;20382;-88
2022/02/08 08:28:52;;;;;;;;;;;8.90;92.70;;;;;;5077361;28;19939;-89
2022/02/08 08:31:18;;;;;;;;;;;8.90;92.60;;;;;;5075875;28;20559;-87
2022/02/08 08:33:43;;;;;;;;;;;9.00;92.60;;;;;;5066037;28;20003;-86
2022/02/08 08:36:09;;;;;;;;;;;8.90;92.60;;;;;;5061343;28;19979;-87
2022/02/08 08:38:35;;;;;;;;;;;9.00;92.60;;;;;;5066407;28;20386;-86
2022/02/08 08:41:21;;;;;;;;;;;9.00;92.60;;;;;;5056995;28;19909;-87
2022/02/08 08:51:44;;;;;;;;;;;9.00;92.60;;;;;;5057511;28;19909;-86
2022/02/08 08:54:10;;;;;;;;;;;9.10;92.60;;;;;;5056899;28;20311;-85
2022/02/08 08:56:36;;;;;;;;;;;9.10;92.50;;;;;;5057123;28;19912;-87
2022/02/08 08:59:03;;;;;;;;;;;9.20;92.50;;;;;;5056882;28;19908;-87
2022/02/08 09:01:29;;;;;;;;;;;9.20;92.50;;;;;;5058926;28;19909;-86
2022/02/08 09:03:54;;;;;;;;;;;9.20;92.50;;;;;;5059422;28;19908;-86
2022/02/08 09:06:20;;;;;;;;;;;9.30;92.50;;;;;;5060618;28;19954;-85
2022/02/08 09:08:46;;;;;;;;;;;9.30;92.50;;;;;;5060584;28;19920;-86
2022/02/08 09:11:22;;;;;;;;;;;9.30;92.50;;;;;;5062895;28;19908;-88
2022/02/08 09:16:36;;;;;;;;;;;9.30;92.50;;;;;;5080454;28;19959;-87
2022/02/08 09:19:26;;;;;;;;;;;9.30;92.50;;;;;;5080125;28;20351;-86
2022/02/08 09:29:36;;;;;;;;;;;9.50;92.40;;;;;;5080091;28;19913;-88
2022/02/08 09:32:11;;;;;;;;;;;9.40;92.40;;;;;;5079527;28;19934;-84
2022/02/08 09:34:41;;;;;;;;;;;9.50;92.40;;;;;;5078669;28;19915;-87
2022/02/08 09:37:10;;;;;;;;;;;9.50;92.40;;;;;;5078799;28;19909;-87
2022/02/08 09:39:36;;;;;;;;;;;9.50;92.30;;;;;;5079460;28;19908;-87
2022/02/08 09:42:02;;;;;;;;;;;9.50;92.30;;;;;;5080031;28;19909;-86
2022/02/08 09:44:31;;;;;;;;;;;9.50;92.30;;;;;;5079637;28;19962;-87
2022/02/08 09:46:58;;;;;;;;;;;9.50;92.20;;;;;;5077912;28;19908;-85
2022/02/08 09:49:24;;;;;;;;;;;9.50;92.20;;;;;;5079781;28;19912;-85
2022/02/08 09:51:51;;;;;;;;;;;9.50;92.40;;;;;;5079815;28;19915;-86
2022/02/08 09:54:19;;;;;;;;;;;9.50;92.30;;;;;;5079449;28;19920;-85
2022/02/08 09:56:46;;;;;;;;;;;9.50;92.30;;;;;;5079802;28;19916;-85
2022/02/08 09:59:11;;;;;;;;;;;9.50;92.30;;;;;;5078579;28;19916;-86
2022/02/08 10:01:40;;;;;;;;;;;9.50;92.30;;;;;;5079490;28;19909;-86
2022/02/08 10:04:05;;;;;;;;;;;9.40;92.30;;;;;;5078401;28;19908;-86
2022/02/08 10:06:31;;;;;;;;;;;9.40;92.30;;;;;;5079815;28;19908;-87
2022/02/08 10:09:04;;;;;;;;;;;9.50;92.40;;;;;;5079146;28;19919;-87
2022/02/08 10:11:43;;;;;;;;;;;9.50;92.50;;;;;;5069429;28;19908;-87
2022/02/08 10:22:33;;;;;;;;;;;9.50;92.50;;;;;;5066353;28;19959;-87
2022/02/08 10:25:06;;;;;;;;;;;9.50;92.40;;;;;;5078986;28;19909;-87
2022/02/08 10:27:39;;;;;;;;;;;9.50;92.30;;;;;;5078968;28;19915;-86
2022/02/08 10:31:26;;;;;;;;;;;9.50;92.30;;;;;;5078977;28;20284;-86
2022/02/08 10:38:44;;;;;;;;;;;9.50;92.30;;;;;;5078750;28;19935;-87
2022/02/08 10:41:13;;;;;;;;;;;9.60;92.30;;;;;;5078717;28;19909;-87
2022/02/08 10:43:40;;;;;;;;;;;9.60;92.20;;;;;;5078617;28;19924;-86
2022/02/08 10:46:16;;;;;;;;;;;9.60;92.30;;;;;;5077063;28;19912;-86
2022/02/08 10:48:42;;;;;;;;;;;9.70;92.30;;;;;;5076989;28;19913;-87
2022/02/08 10:51:08;;;;;;;;;;;9.70;92.30;;;;;;5078916;28;19958;-87
2022/02/08 10:53:40;;;;;;;;;;;9.70;92.20;;;;;;5078585;28;19932;-87
2022/02/08 10:56:08;;;;;;;;;;;9.70;92.10;;;;;;5078354;28;19908;-87
2022/02/08 10:58:42;;;;;;;;;;;9.80;92.10;;;;;;5078524;28;19908;-86
2022/02/08 11:01:17;;;;;;;;;;;9.80;92.00;;;;;;5078318;28;19958;-87
2022/02/08 11:04:05;;;;;;;;;;;9.80;91.90;;;;;;5077947;28;19951;-86
2022/02/08 11:06:41;;;;;;;;;;;9.70;91.90;;;;;;5078452;28;19912;-88
2022/02/08 11:09:41;;;;;;;;;;;9.80;91.80;;;;;;5078049;28;19912;-88
2022/02/08 11:12:18;;;;;;;;;;;9.70;91.80;;;;;;5064758;28;19967;-88
2022/02/08 11:14:59;;;;;;;;;;;9.70;91.90;;;;;;5078315;28;19908;-87
2022/02/08 11:20:26;;;;;;;;;;;9.80;92.00;;;;;;5073490;28;19916;-88
2022/02/08 11:23:06;;;;;;;;;;;9.90;92.00;;;;;;5077981;28;19923;-88
2022/02/08 11:25:37;;;;;;;;;;;9.90;92.00;;;;;;5077692;28;20310;-88
2022/02/08 11:28:16;;;;;;;;;;;10.00;92.20;;;;;;5078069;28;19917;-88
2022/02/08 11:30:54;;;;;;;;;;;10.00;92.10;;;;;;5064403;28;20256;-88
2022/02/08 11:47:32;;;;;;;;;;;10.10;92.10;;;;;;5015115;28;19910;-87
2022/02/08 11:55:25;;;;;;;;;;;10.10;92.00;;;;;;5057733;28;19909;-87
2022/02/08 12:00:45;;;;;;;;;;;10.20;91.90;;;;;;5057483;28;19976;-87
2022/02/08 12:03:39;;;;;;;;;;;10.20;91.80;;;;;;5057425;28;19916;-87
2022/02/08 12:06:29;;;;;;;;;;;10.10;91.80;;;;;;5057462;28;19908;-87
2022/02/08 12:08:59;;;;;;;;;;;10.10;91.80;;;;;;5057305;28;19917;-87
2022/02/08 12:12:00;;;;;;;;;;;10.20;91.90;;;;;;5057930;28;19909;-88
2022/02/08 12:39:36;;;;;;;;;;;10.30;92.10;;;;;;5080737;28;19915;-87
2022/02/08 12:56:12;;;;;;;;;;;10.40;92.10;;;;;;5080814;28;19919;-88
2022/02/08 13:01:55;;;;;;;;;;;10.40;92.00;;;;;;5067652;28;19908;-88
2022/02/08 13:05:30;;;;;;;;;;;10.40;92.10;;;;;;5080360;28;19934;-88
2022/02/08 14:06:32;;;;;;;;;;;10.70;92.00;;;;;;5079617;28;19930;-89
2022/02/08 14:09:21;;;;;;;;;;;10.70;92.00;;;;;;5079287;28;19919;-88
2022/02/08 14:12:05;;;;;;;;;;;10.70;92.20;;;;;;5067369;28;20428;-88
2022/02/08 14:15:06;;;;;;;;;;;10.70;92.30;;;;;;5065623;28;19968;-88
2022/02/08 14:17:39;;;;;;;;;;;10.70;92.20;;;;;;5078714;28;19909;-89
2022/02/08 14:25:32;;;;;;;;;;;10.70;92.10;;;;;;5079168;28;19915;-88
2022/02/08 14:31:08;;;;;;;;;;;10.80;92.10;;;;;;5067548;28;19915;-88
2022/02/08 15:08:31;;;;;;;;;;;10.80;91.80;;;;;;5078264;28;19919;-88
2022/02/08 15:11:04;;;;;;;;;;;10.80;91.70;;;;;;5060185;28;20000;-88
2022/02/08 15:13:31;;;;;;;;;;;10.80;91.60;;;;;;5069558;28;20003;-87
2022/02/08 15:16:17;;;;;;;;;;;10.80;91.60;;;;;;5078026;28;19954;-88
2022/02/08 15:18:43;;;;;;;;;;;10.70;91.60;;;;;;5077912;28;19995;-87
2022/02/08 15:21:16;;;;;;;;;;;10.70;91.60;;;;;;5078393;28;19955;-88
2022/02/08 15:23:42;;;;;;;;;;;10.70;91.60;;;;;;5078072;28;20003;-87
2022/02/08 15:26:08;;;;;;;;;;;10.70;91.60;;;;;;5078162;28;19952;-88
2022/02/08 15:28:34;;;;;;;;;;;10.70;91.60;;;;;;5077933;28;20298;-89
2022/02/08 15:30:59;;;;;;;;;;;10.70;91.60;;;;;;5078239;28;20423;-89
2022/02/08 15:33:25;;;;;;;;;;;10.60;91.60;;;;;;5076245;28;20302;-87
2022/02/08 15:35:53;;;;;;;;;;;10.60;91.60;;;;;;5078062;28;20428;-89
2022/02/08 15:38:19;;;;;;;;;;;10.60;91.60;;;;;;5077859;28;20453;-88
2022/02/08 15:40:45;;;;;;;;;;;10.60;91.60;;;;;;5077918;28;19909;-87
2022/02/08 15:43:13;;;;;;;;;;;10.60;91.50;;;;;;5076262;28;19966;-87
2022/02/08 15:45:52;;;;;;;;;;;10.70;91.60;;;;;;5077580;28;19909;-87
2022/02/08 15:48:23;;;;;;;;;;;10.70;91.70;;;;;;5077331;28;19935;-87
2022/02/08 15:50:59;;;;;;;;;;;10.70;91.60;;;;;;5077715;28;19931;-87
2022/02/08 15:56:27;;;;;;;;;;;10.70;91.60;;;;;;5077536;28;19961;-88
2022/02/08 16:05:11;;;;;;;;;;;10.70;91.60;;;;;;5077426;28;19950;-88
2022/02/08 16:07:20;;;;;;;;;;;10.70;91.50;;;;;;5077770;28;19935;-89
2022/02/08 16:09:55;;;;;;;;;;;10.70;91.50;;;;;;5078362;28;19913;-89
2022/02/08 16:18:07;;;;;;;;;;;10.70;91.50;;;;;;5068250;28;19909;-88
2022/02/08 16:20:56;;;;;;;;;;;10.70;91.50;;;;;;5081670;28;19962;-88
2022/02/08 16:23:41;;;;;;;;;;;10.70;91.40;;;;;;5081504;28;19909;-87
2022/02/08 16:29:09;;;;;;;;;;;10.70;91.40;;;;;;5081211;28;20008;-87
2022/02/08 16:32:06;;;;;;;;;;;10.70;91.40;;;;;;5081029;28;19912;-87
2022/02/08 16:53:58;;;;;;;;;;;10.40;91.20;;;;;;5080825;28;20386;-86
2022/02/08 16:56:50;;;;;;;;;;;10.40;91.10;;;;;;5080653;28;19974;-87
2022/02/08 16:59:11;;;;;;;;;;;10.30;91.10;;;;;;5080542;28;20374;-86
2022/02/08 17:01:37;;;;;;;;;;;10.30;91.20;;;;;;5080700;28;20033;-86
2022/02/08 17:04:07;;;;;;;;;;;10.20;91.20;;;;;;5080704;28;20295;-85
2022/02/08 17:06:34;;;;;;;;;;;10.20;91.30;;;;;;5079408;28;19951;-86
2022/02/08 17:09:14;;;;;;;;;;;10.10;91.20;;;;;;5080335;28;19916;-86
2022/02/08 17:11:52;;;;;;;;;;;10.10;91.20;;;;;;5069648;28;20033;-86
2022/02/08 17:14:29;;;;;;;;;;;10.10;91.20;;;;;;5078803;28;19958;-86
2022/02/08 17:47:43;;;;;;;;;;;9.70;91.30;;;;;;5066315;28;19908;-87
2022/02/08 17:50:10;;;;;;;;;;;9.60;91.30;;;;;;5080332;28;20291;-87
2022/02/08 17:52:36;;;;;;;;;;;9.60;91.40;;;;;;5079563;28;19913;-87
2022/02/08 17:55:03;;;;;;;;;;;9.60;91.40;;;;;;5079901;28;19912;-87
2022/02/08 17:57:28;;;;;;;;;;;9.60;91.50;;;;;;5079518;28;20014;-87
2022/02/08 17:59:54;;;;;;;;;;;9.50;91.50;;;;;;5079733;28;20102;-86
2022/02/08 18:02:21;;;;;;;;;;;9.60;91.60;;;;;;5079135;28;19931;-84
2022/02/08 18:04:48;;;;;;;;;;;9.60;91.60;;;;;;5079716;28;19908;-85
2022/02/08 18:07:17;;;;;;;;;;;9.60;91.60;;;;;;5079359;28;19952;-85
2022/02/08 18:09:43;;;;;;;;;;;9.60;91.70;;;;;;5079480;28;19920;-86
2022/02/08 18:12:09;;;;;;;;;;;9.60;91.70;;;;;;5065708;28;19909;-86
2022/02/08 18:14:34;;;;;;;;;;;9.60;91.70;;;;;;5079558;28;19908;-86
2022/02/08 18:17:09;;;;;;;;;;;9.60;91.70;;;;;;5079020;28;19909;-87
2022/02/08 18:19:38;;;;;;;;;;;9.60;91.70;;;;;;5079559;28;19970;-88
2022/02/08 18:24:53;;;;;;;;;;;9.50;91.60;;;;;;5079124;28;19909;-87
2022/02/08 19:11:34;;;;;;;;;;;8.90;91.50;;;;;;5075120;28;19963;-86
2022/02/08 19:16:39;;;;;;;;;;;8.80;91.70;;;;;;5066702;28;19931;-88
2022/02/08 19:21:35;;;;;;;;;;;8.90;91.80;;;;;;5078416;28;20357;-88
2022/02/08 19:24:01;;;;;;;;;;;8.90;91.80;;;;;;5077910;28;19915;-88
2022/02/08 19:26:26;;;;;;;;;;;8.90;91.80;;;;;;5078356;28;19995;-90
2022/02/08 19:28:53;;;;;;;;;;;8.90;91.80;;;;;;5077939;28;19913;-88
2022/02/08 19:31:20;;;;;;;;;;;8.90;91.70;;;;;;5077857;28;19952;-87
2022/02/08 19:33:46;;;;;;;;;;;8.90;91.60;;;;;;5077793;28;19908;-88
2022/02/08 19:36:14;;;;;;;;;;;9.00;91.60;;;;;;5077834;28;19908;-88
2022/02/08 19:38:42;;;;;;;;;;;9.00;91.60;;;;;;5078262;28;19913;-87
2022/02/08 19:41:08;;;;;;;;;;;8.90;91.60;;;;;;5077810;28;19917;-88
2022/02/08 19:43:34;;;;;;;;;;;8.90;91.60;;;;;;5077972;28;19920;-87
2022/02/08 19:46:00;;;;;;;;;;;8.90;91.60;;;;;;5076837;28;19962;-88
2022/02/08 19:48:26;;;;;;;;;;;8.90;91.70;;;;;;5077735;28;19916;-88
2022/02/08 19:50:52;;;;;;;;;;;8.90;91.70;;;;;;5077733;28;19908;-89
2022/02/08 19:53:18;;;;;;;;;;;8.90;91.70;;;;;;5077982;28;19909;-88
2022/02/08 19:56:08;;;;;;;;;;;8.80;91.70;;;;;;5077481;28;19916;-86
2022/02/08 19:58:34;;;;;;;;;;;8.80;91.80;;;;;;5077726;28;19915;-87
2022/02/08 20:01:07;;;;;;;;;;;8.80;91.80;;;;;;5076145;28;19919;-87
2022/02/08 20:03:43;;;;;;;;;;;8.80;91.80;;;;;;5076538;28;20011;-87
2022/02/08 20:06:10;;;;;;;;;;;8.80;91.80;;;;;;5057809;28;19974;-87
2022/02/08 20:08:36;;;;;;;;;;;8.80;91.70;;;;;;5056027;28;19913;-85
2022/02/08 20:11:02;;;;;;;;;;;8.80;91.80;;;;;;5057397;28;19909;-86
2022/02/08 20:13:29;;;;;;;;;;;8.80;91.80;;;;;;5070301;28;19955;-87
2022/02/08 20:15:55;;;;;;;;;;;8.80;91.80;;;;;;5077465;28;19909;-87
2022/02/08 20:18:22;;;;;;;;;;;8.80;91.80;;;;;;5077299;28;19948;-88
2022/02/08 20:20:48;;;;;;;;;;;8.80;91.80;;;;;;5077505;28;20390;-88
2022/02/08 20:23:15;;;;;;;;;;;8.70;91.80;;;;;;5077521;28;19967;-88
2022/02/08 20:25:48;;;;;;;;;;;8.80;91.90;;;;;;5077541;28;19909;-87
2022/02/08 20:28:24;;;;;;;;;;;8.80;91.90;;;;;;5076290;28;19919;-87
2022/02/08 20:30:51;;;;;;;;;;;8.70;91.80;;;;;;5077623;28;19909;-86
2022/02/08 20:33:17;;;;;;;;;;;8.70;91.80;;;;;;5077065;28;19915;-86
2022/02/08 20:35:43;;;;;;;;;;;8.70;91.80;;;;;;5077442;28;19908;-86
2022/02/08 20:38:13;;;;;;;;;;;8.70;91.90;;;;;;5075977;28;19951;-85
2022/02/08 20:40:40;;;;;;;;;;;8.70;91.90;;;;;;5077405;28;19909;-85
2022/02/08 20:43:07;;;;;;;;;;;8.70;91.90;;;;;;5077057;28;19929;-86
2022/02/08 20:45:35;;;;;;;;;;;8.70;91.90;;;;;;5077103;28;19956;-86
2022/02/08 20:48:02;;;;;;;;;;;8.70;91.90;;;;;;5076709;28;19909;-87
2022/02/08 20:50:28;;;;;;;;;;;8.70;91.90;;;;;;5077291;28;19916;-86
2022/02/08 20:52:58;;;;;;;;;;;8.70;91.80;;;;;;5077013;28;19908;-86
2022/02/08 20:55:27;;;;;;;;;;;8.70;91.70;;;;;;5077064;28;19909;-87
2022/02/08 20:58:05;;;;;;;;;;;8.70;91.70;;;;;;5079525;28;19979;-87
2022/02/08 21:00:35;;;;;;;;;;;8.70;91.70;;;;;;5080834;28;19909;-85
2022/02/08 21:03:14;;;;;;;;;;;8.70;91.70;;;;;;5080609;28;19908;-85
2022/02/08 21:05:58;;;;;;;;;;;8.70;91.60;;;;;;5079798;28;19915;-85
2022/02/08 21:08:24;;;;;;;;;;;8.70;91.60;;;;;;5079471;28;19919;-86
2022/02/08 21:10:50;;;;;;;;;;;8.70;91.60;;;;;;5076181;28;19909;-85
2022/02/08 21:13:28;;;;;;;;;;;8.70;91.60;;;;;;5071581;28;19908;-87
2022/02/08 21:15:54;;;;;;;;;;;8.70;91.50;;;;;;5080369;28;19909;-86
2022/02/08 21:18:20;;;;;;;;;;;8.70;91.50;;;;;;5080394;28;19944;-86
2022/02/08 21:20:45;;;;;;;;;;;8.70;91.50;;;;;;5080337;28;19909;-86
2022/02/08 21:23:11;;;;;;;;;;;8.60;91.40;;;;;;5079381;28;19979;-85
2022/02/08 21:25:45;;;;;;;;;;;8.60;91.30;;;;;;5080156;28;19909;-85
2022/02/08 21:28:20;;;;;;;;;;;8.60;91.30;;;;;;5080377;28;19920;-84
2022/02/08 21:47:41;;;;;;;;;;;8.40;91.30;;;;;;5079682;28;19908;-86
2022/02/08 21:50:01;;;;;;;;;;;8.30;91.30;;;;;;5066795;28;20342;-87
2022/02/08 21:52:32;;;;;;;;;;;8.30;91.40;;;;;;5079750;28;19908;-81
2022/02/08 21:55:01;;;;;;;;;;;8.30;91.40;;;;;;5079993;28;19909;-87
2022/02/08 21:57:42;;;;;;;;;;;8.30;91.40;;;;;;5079677;28;19908;-87
2022/02/08 22:00:10;;;;;;;;;;;8.20;91.40;;;;;;5078525;28;19961;-87
2022/02/08 22:02:36;;;;;;;;;;;8.30;91.40;;;;;;5079321;28;20283;-87
2022/02/08 22:05:02;;;;;;;;;;;8.20;91.50;;;;;;5079694;28;19909;-87